RKSI/ICN METAR and TAF weather

Enter ICAO airport designator
Station Type Date Time Source
RKSI METAR 2020/07/10 19:00 UTC NOAA

RKSI 101900Z 01008KT 9999 FEW040 22/15 Q1004 NOSIG


Station Type Date Time Source
RKSI Decoded METAR 2020/07/10 19:00 UTC NOAA

Incheon International Airport, Korea, South (RKSI) 37-28N 126-27E
Jul 10, 2020 - 03:00 PM EDT / 2020.07.10 1900 UTC
Wind: from the N (010 degrees) at 9 MPH (8 KT):0
Visibility: greater than 7 mile(s):0
Sky conditions: mostly clear
Temperature: 71 F (22 C)
Dew Point: 59 F (15 C)
Relative Humidity: 64%
Pressure (altimeter): 29.65 in. Hg (1004 hPa)
ob: RKSI 101900Z 01008KT 9999 FEW040 22/15 Q1004 NOSIG
cycle: 19

Station Type Date Time Source
RKSI TAF 2020/07/10 18:06 UTC NOAA

TAF RKSI 101700Z 1018/1124 02010KT CAVOK TN21/1021Z TX29/1106Z TN21/1121Z
BECMG 1103/1104 32006KT 9999 SCT030
BECMG 1109/1110 06010KT

Example: see airport list